Glostrup, Denmark
Current Conditions -  °F | °C
As of 7:20 AM on Tuesday 21 Oct 2014 (Local Time) from EKCH Reporting Station
Light Fog Light Fog  
Wind Chill: 46°   Ceiling: Unl
Heat Index: 48°   Visibility: 4mi
Dew Point: 48°   Wind: 6mph
Humidity: 100%   Direction: 230°SW
Pressure: 29.65"   Gusts: NA
Location:  55.67°N, 12.4°E
Report Text: EKCH 210520Z 23005KT 6000 BCFG SCT006 09/09 Q1004 TEMPO0700 BKN002
Loading
Personal Weather Stations






























Interactive Weather Map
Tropical Storm Tracking
New forecast layout! Learn more

10-Day Weather Forecast

Advertisements
Track Severe Weather on mobile